Time;durP1;ratioP1;P1;durP2;ratioP2;P2;SDS_P1;SDS_P2;PMS_P1;PMS_P2;Temp;Humidity;BMP_temperature;BMP_pressure;BME280_temperature;BME280_humidity;BME280_pressure;Samples;Min_cycle;Max_cycle;Signal;HPM_P1;HPM_P2
2023/09/22 15:06:00;;;;;;;10.52;5.63;;;;;;;;;;6172029;22;20023;31
2023/09/22 15:08:25;;;;;;;7.15;5.55;;;;;;;;;;5007976;28;20054;-79
2023/09/22 15:10:51;;;;;;;5.60;4.50;;;;;;;;;;5014602;28;20033;-79
2023/09/22 15:13:17;;;;;;;4.65;4.15;;;;;;;;;;5014480;28;20029;-79
2023/09/22 15:15:43;;;;;;;4.95;4.53;;;;;;;;;;5013210;28;20041;-80
2023/09/22 15:18:08;;;;;;;5.25;4.75;;;;;;;;;;5014604;28;20495;-80
2023/09/22 15:20:34;;;;;;;5.18;3.90;;;;;;;;;;5014750;28;20105;-88
2023/09/22 15:22:59;;;;;;;6.15;4.22;;;;;;;;;;5014533;28;20026;-81
2023/09/22 15:25:25;;;;;;;6.70;3.92;;;;;;;;;;5011313;28;20373;-81
2023/09/22 15:27:51;;;;;;;8.10;4.95;;;;;;;;;;5014306;28;20105;-81
2023/09/22 15:30:17;;;;;;;5.72;4.90;;;;;;;;;;5014369;28;20407;-81
2023/09/22 15:32:42;;;;;;;6.45;4.53;;;;;;;;;;5013965;28;20029;-81
2023/09/22 15:35:10;;;;;;;4.80;3.95;;;;;;;;;;4992589;28;20069;-82
2023/09/22 15:37:35;;;;;;;6.30;4.13;;;;;;;;;;4993124;28;20019;-82
2023/09/22 15:40:06;;;;;;;5.70;4.13;;;;;;;;;;5004350;28;20483;-80
2023/09/22 15:42:34;;;;;;;5.93;4.40;;;;;;;;;;5014125;28;20101;-82
2023/09/22 15:45:01;;;;;;;7.25;4.88;;;;;;;;;;5014343;28;20025;-82
2023/09/22 15:47:27;;;;;;;7.43;4.40;;;;;;;;;;5014083;28;20523;-81
2023/09/22 15:49:54;;;;;;;10.13;4.88;;;;;;;;;;5013898;28;20030;-81
2023/09/22 15:52:20;;;;;;;7.40;4.68;;;;;;;;;;5013965;28;20026;-80
2023/09/22 15:54:45;;;;;;;7.05;4.13;;;;;;;;;;5014454;28;20104;-81
2023/09/22 15:57:11;;;;;;;6.20;4.07;;;;;;;;;;5014156;28;20453;-81
2023/09/22 15:59:37;;;;;;;5.28;4.07;;;;;;;;;;5013796;28;20112;-82
2023/09/22 16:02:05;;;;;;;6.20;4.13;;;;;;;;;;5014001;28;20088;-81
2023/09/22 16:04:31;;;;;;;8.97;4.70;;;;;;;;;;5014117;28;20465;-81
2023/09/22 16:06:57;;;;;;;6.18;4.03;;;;;;;;;;5013662;28;20099;-82
2023/09/22 16:09:22;;;;;;;6.95;4.38;;;;;;;;;;5013871;28;20033;-81
2023/09/22 16:11:48;;;;;;;5.93;4.38;;;;;;;;;;5014079;28;20061;-82
2023/09/22 16:14:14;;;;;;;5.30;4.43;;;;;;;;;;4996435;28;20464;-81
2023/09/22 16:16:43;;;;;;;4.40;4.00;;;;;;;;;;5013765;28;20026;-81
2023/09/22 16:19:09;;;;;;;5.90;4.85;;;;;;;;;;5013805;28;20037;-80
2023/09/22 16:21:36;;;;;;;7.25;4.57;;;;;;;;;;5013507;28;20025;-81
2023/09/22 16:24:03;;;;;;;6.38;4.72;;;;;;;;;;5014023;28;20037;-81
2023/09/22 16:26:29;;;;;;;5.40;4.40;;;;;;;;;;5013712;28;20032;-82
2023/09/22 16:28:56;;;;;;;4.88;4.10;;;;;;;;;;5013865;28;20025;-82
2023/09/22 16:31:22;;;;;;;5.78;4.47;;;;;;;;;;5013568;28;20022;-82
2023/09/22 16:33:49;;;;;;;7.00;4.55;;;;;;;;;;5013693;28;20041;-84
2023/09/22 16:36:14;;;;;;;4.47;3.97;;;;;;;;;;5013326;28;20030;-83
2023/09/22 16:38:40;;;;;;;5.75;4.40;;;;;;;;;;5013744;28;20484;-81
2023/09/22 16:41:08;;;;;;;5.65;4.10;;;;;;;;;;4995767;28;20579;-84
2023/09/22 16:43:37;;;;;;;5.20;4.68;;;;;;;;;;5013520;28;20435;-82
2023/09/22 16:46:03;;;;;;;9.60;4.80;;;;;;;;;;5016622;28;20032;-82
2023/09/22 16:48:28;;;;;;;4.75;4.00;;;;;;;;;;5017692;28;20034;-81
2023/09/22 16:50:54;;;;;;;6.75;4.28;;;;;;;;;;5017378;28;20026;-82
2023/09/22 16:53:20;;;;;;;4.82;4.35;;;;;;;;;;5015869;28;20502;-83
2023/09/22 16:55:46;;;;;;;6.35;4.13;;;;;;;;;;4999566;28;20030;-81
2023/09/22 16:58:12;;;;;;;6.68;4.75;;;;;;;;;;4999809;28;20026;-81
2023/09/22 17:00:38;;;;;;;7.03;4.97;;;;;;;;;;5017160;28;20152;-81
2023/09/22 17:03:05;;;;;;;5.50;4.07;;;;;;;;;;4999488;28;20112;-81
2023/09/22 17:05:35;;;;;;;5.60;4.30;;;;;;;;;;5017183;28;20030;-82
2023/09/22 17:08:05;;;;;;;5.07;4.57;;;;;;;;;;5016964;28;20041;-81
2023/09/22 17:10:33;;;;;;;7.80;5.00;;;;;;;;;;5017157;28;20030;-81
2023/09/22 17:12:59;;;;;;;5.78;4.80;;;;;;;;;;5016947;28;20026;-81
2023/09/22 17:15:24;;;;;;;9.93;6.05;;;;;;;;;;5017038;28;20030;-81
2023/09/22 17:17:50;;;;;;;6.90;5.22;;;;;;;;;;5017025;28;20032;-81
2023/09/22 17:20:16;;;;;;;5.55;4.93;;;;;;;;;;5016830;28;20480;-81
2023/09/22 17:22:42;;;;;;;7.75;4.82;;;;;;;;;;5017090;28;20036;-81
2023/09/22 17:25:09;;;;;;;6.10;5.00;;;;;;;;;;5016794;28;20499;-81
2023/09/22 17:27:35;;;;;;;5.65;4.75;;;;;;;;;;5016523;28;20049;-82
2023/09/22 17:30:01;;;;;;;7.35;4.78;;;;;;;;;;5016576;28;20472;-81
2023/09/22 17:32:26;;;;;;;6.30;4.63;;;;;;;;;;5016451;28;20026;-81
2023/09/22 17:34:52;;;;;;;5.78;4.72;;;;;;;;;;5016960;28;20087;-81
2023/09/22 17:37:19;;;;;;;6.55;4.50;;;;;;;;;;5016664;28;20511;-81
2023/09/22 17:39:45;;;;;;;7.85;4.93;;;;;;;;;;5016405;28;20030;-81
2023/09/22 17:42:10;;;;;;;7.30;4.90;;;;;;;;;;5016434;28;20048;-81
2023/09/22 17:44:36;;;;;;;6.20;4.93;;;;;;;;;;5016548;28;20049;-80
2023/09/22 17:47:02;;;;;;;5.97;5.03;;;;;;;;;;5016280;28;20030;-81
2023/09/22 17:49:28;;;;;;;7.10;5.57;;;;;;;;;;5016011;28;20093;-82
2023/09/22 17:51:54;;;;;;;7.13;5.63;;;;;;;;;;4998637;28;20026;-82
2023/09/22 17:54:20;;;;;;;6.68;4.90;;;;;;;;;;4998521;28;20428;-80
2023/09/22 17:56:46;;;;;;;12.98;5.93;;;;;;;;;;5015137;28;20021;-80
2023/09/22 17:59:11;;;;;;;6.38;5.78;;;;;;;;;;5016079;28;20026;-81
2023/09/22 18:01:37;;;;;;;6.68;5.70;;;;;;;;;;5015732;28;20116;-80
2023/09/22 18:04:03;;;;;;;6.35;5.75;;;;;;;;;;5016086;28;20120;-81
2023/09/22 18:06:31;;;;;;;6.80;5.30;;;;;;;;;;5015564;28;20488;-81
2023/09/22 18:08:57;;;;;;;9.18;5.13;;;;;;;;;;5015978;28;20033;-80
2023/09/22 18:11:22;;;;;;;6.53;5.18;;;;;;;;;;5015929;28;20036;-82
2023/09/22 18:13:48;;;;;;;8.15;5.75;;;;;;;;;;5015953;28;20073;-80
2023/09/22 18:16:14;;;;;;;6.35;5.00;;;;;;;;;;5015486;28;20049;-81
2023/09/22 18:18:43;;;;;;;11.60;5.50;;;;;;;;;;5015800;28;20480;-81
2023/09/22 18:21:08;;;;;;;6.03;5.38;;;;;;;;;;5015531;28;20172;-81
2023/09/22 18:23:34;;;;;;;8.05;5.53;;;;;;;;;;5015719;28;20064;-83
2023/09/22 18:26:06;;;;;;;8.18;5.85;;;;;;;;;;5015701;28;20495;-82
2023/09/22 18:28:32;;;;;;;7.65;4.95;;;;;;;;;;5015582;28;20054;-82
2023/09/22 18:31:02;;;;;;;6.22;4.82;;;;;;;;;;5015612;28;20026;-82
2023/09/22 18:33:31;;;;;;;8.27;5.32;;;;;;;;;;5015328;28;20025;-85
2023/09/22 18:36:03;;;;;;;8.65;5.38;;;;;;;;;;5015371;28;20030;-88
2023/09/22 18:38:29;;;;;;;8.77;4.93;;;;;;;;;;5015551;28;20033;-87
2023/09/22 18:40:54;;;;;;;7.97;4.97;;;;;;;;;;5015796;28;20065;-88
2023/09/22 18:43:22;;;;;;;8.77;5.60;;;;;;;;;;5015546;28;20026;-88
2023/09/22 18:45:48;;;;;;;11.20;5.70;;;;;;;;;;5015580;28;20464;-84
2023/09/22 18:48:16;;;;;;;9.27;5.03;;;;;;;;;;5014773;28;20084;-87
2023/09/22 18:50:48;;;;;;;8.50;5.05;;;;;;;;;;5015777;28;20475;-88
2023/09/22 18:53:14;;;;;;;8.90;5.22;;;;;;;;;;5015984;28;20034;-89
2023/09/22 18:55:46;;;;;;;9.13;5.30;;;;;;;;;;5015976;28;20033;-87
2023/09/22 18:58:13;;;;;;;6.82;5.15;;;;;;;;;;5015569;28;20321;-87
2023/09/22 19:00:40;;;;;;;5.35;4.70;;;;;;;;;;5015281;28;20101;-89
2023/09/22 19:03:05;;;;;;;8.30;5.03;;;;;;;;;;5014251;28;20030;-89
2023/09/22 19:05:31;;;;;;;8.02;5.05;;;;;;;;;;5015097;28;20075;-84
2023/09/22 19:07:57;;;;;;;7.07;5.47;;;;;;;;;;5014150;28;20129;-88
2023/09/22 19:10:22;;;;;;;7.30;5.72;;;;;;;;;;5014641;28;20033;-82
2023/09/22 19:12:48;;;;;;;7.07;5.10;;;;;;;;;;5014647;28;20036;-87
2023/09/22 19:15:14;;;;;;;10.15;5.55;;;;;;;;;;4996949;28;20040;-84
2023/09/22 19:17:40;;;;;;;6.00;5.18;;;;;;;;;;4980788;28;20026;-82
2023/09/22 19:20:06;;;;;;;6.95;5.50;;;;;;;;;;5013761;28;20112;-84
2023/09/22 19:22:32;;;;;;;6.97;4.90;;;;;;;;;;5014312;28;20018;-82
2023/09/22 19:24:57;;;;;;;7.15;5.22;;;;;;;;;;4995871;28;20041;-81
2023/09/22 19:27:23;;;;;;;5.43;4.50;;;;;;;;;;5014327;28;20028;-82
2023/09/22 19:29:48;;;;;;;4.70;4.15;;;;;;;;;;5014109;28;20097;-79
2023/09/22 19:32:14;;;;;;;6.03;4.88;;;;;;;;;;5014278;28;20354;-79
2023/09/22 19:34:39;;;;;;;7.03;4.85;;;;;;;;;;5014310;28;20053;-80
2023/09/22 19:37:05;;;;;;;5.18;4.68;;;;;;;;;;5014185;28;20457;-80
2023/09/22 19:39:31;;;;;;;5.20;4.40;;;;;;;;;;5014153;28;20032;-79
2023/09/22 19:41:57;;;;;;;7.50;4.38;;;;;;;;;;4980035;28;20125;-80
2023/09/22 19:44:23;;;;;;;5.60;4.75;;;;;;;;;;5014318;28;20439;-81
2023/09/22 19:46:49;;;;;;;5.57;4.25;;;;;;;;;;5014093;28;20030;-80
2023/09/22 19:49:15;;;;;;;5.30;3.90;;;;;;;;;;5013970;28;20026;-80
2023/09/22 19:51:41;;;;;;;4.90;3.85;;;;;;;;;;5013924;28;20025;-80
2023/09/22 19:54:07;;;;;;;5.95;4.00;;;;;;;;;;5013543;28;20101;-81
2023/09/22 19:56:32;;;;;;;5.80;4.32;;;;;;;;;;5013791;28;20026;-80
2023/09/22 19:58:58;;;;;;;5.97;3.83;;;;;;;;;;5013783;28;20033;-80
2023/09/22 20:01:25;;;;;;;4.57;4.05;;;;;;;;;;5013890;28;20022;-80
2023/09/22 20:03:54;;;;;;;4.97;3.70;;;;;;;;;;5013074;28;20026;-80
2023/09/22 20:06:20;;;;;;;4.63;4.00;;;;;;;;;;5013462;28;20037;-80
2023/09/22 20:08:46;;;;;;;4.40;3.88;;;;;;;;;;5013604;28;20034;-80
2023/09/22 20:11:12;;;;;;;5.15;4.15;;;;;;;;;;5013576;28;20413;-80
2023/09/22 20:13:39;;;;;;;4.88;4.00;;;;;;;;;;5013460;28;20030;-80
2023/09/22 20:16:07;;;;;;;4.60;3.70;;;;;;;;;;5012385;28;20453;-79
2023/09/22 20:18:33;;;;;;;6.78;4.07;;;;;;;;;;5013618;28;20076;-80
2023/09/22 20:21:03;;;;;;;4.55;3.50;;;;;;;;;;5013062;28;20026;-80
2023/09/22 20:23:29;;;;;;;6.82;4.07;;;;;;;;;;5013492;28;20106;-80
2023/09/22 20:26:14;;;;;;;5.65;4.18;;;;;;;;;;5013656;28;20116;-80
2023/09/22 20:28:40;;;;;;;4.57;4.10;;;;;;;;;;5013748;28;20026;-80
2023/09/22 20:31:07;;;;;;;6.22;3.83;;;;;;;;;;5013643;28;20030;-80
2023/09/22 20:33:34;;;;;;;5.57;3.78;;;;;;;;;;5013652;28;20048;-81
2023/09/22 20:36:06;;;;;;;6.95;4.00;;;;;;;;;;5013620;28;20354;-81
2023/09/22 20:38:33;;;;;;;6.68;4.13;;;;;;;;;;5013683;28;20026;-81
2023/09/22 20:40:59;;;;;;;6.55;3.80;;;;;;;;;;5013764;28;20428;-82
2023/09/22 20:43:25;;;;;;;6.40;4.25;;;;;;;;;;5013531;28;20435;-81
2023/09/22 20:45:53;;;;;;;4.63;4.15;;;;;;;;;;4995947;28;20033;-83
2023/09/22 20:48:24;;;;;;;5.32;3.78;;;;;;;;;;5013379;28;20022;-81
2023/09/22 20:50:49;;;;;;;5.22;3.53;;;;;;;;;;5013681;28;20029;-82
2023/09/22 20:53:18;;;;;;;5.18;3.53;;;;;;;;;;5013435;28;20026;-81
2023/09/22 20:55:44;;;;;;;5.20;3.85;;;;;;;;;;5013837;28;20105;-81
2023/09/22 20:58:10;;;;;;;6.55;3.55;;;;;;;;;;5013424;28;20113;-81
2023/09/22 21:00:40;;;;;;;5.10;3.72;;;;;;;;;;5013082;28;20029;-81
2023/09/22 21:03:08;;;;;;;6.30;3.53;;;;;;;;;;5013206;28;20046;-81
2023/09/22 21:05:38;;;;;;;5.53;3.45;;;;;;;;;;5013270;28;20104;-81
2023/09/22 21:08:04;;;;;;;4.28;3.30;;;;;;;;;;5013137;28;20079;-81
2023/09/22 21:10:34;;;;;;;6.50;3.45;;;;;;;;;;5013290;28;20468;-81
2023/09/22 21:13:00;;;;;;;4.35;3.83;;;;;;;;;;5013347;28;20156;-81
2023/09/22 21:15:26;;;;;;;4.97;3.60;;;;;;;;;;5013252;28;20499;-81
2023/09/22 21:17:56;;;;;;;6.20;3.50;;;;;;;;;;5013117;28;20029;-81
2023/09/22 21:20:23;;;;;;;5.95;3.33;;;;;;;;;;5013394;28;20030;-81
2023/09/22 21:22:49;;;;;;;4.03;3.30;;;;;;;;;;5013328;28;20049;-81
2023/09/22 21:25:14;;;;;;;5.65;3.70;;;;;;;;;;5013212;28;20465;-81
2023/09/22 21:27:40;;;;;;;3.80;3.38;;;;;;;;;;5013061;28;20080;-81
2023/09/22 21:30:06;;;;;;;3.80;3.40;;;;;;;;;;5013374;28;20018;-81
2023/09/22 21:32:32;;;;;;;4.35;3.30;;;;;;;;;;5015017;28;20112;-81
2023/09/22 21:34:58;;;;;;;3.53;3.22;;;;;;;;;;5016734;28;20033;-80
2023/09/22 21:37:23;;;;;;;5.38;3.13;;;;;;;;;;5016978;28;20021;-80
2023/09/22 21:39:49;;;;;;;4.50;2.78;;;;;;;;;;5015309;28;20037;-80
2023/09/22 21:42:15;;;;;;;3.58;2.80;;;;;;;;;;5016440;28;20025;-80
2023/09/22 21:44:42;;;;;;;6.43;2.83;;;;;;;;;;5016172;28;20060;-81
2023/09/22 21:47:07;;;;;;;4.32;2.92;;;;;;;;;;5016264;28;20030;-80
2023/09/22 21:49:33;;;;;;;3.28;2.95;;;;;;;;;;5016611;28;20034;-81
2023/09/22 21:51:59;;;;;;;4.25;3.20;;;;;;;;;;5016210;28;20100;-80
2023/09/22 21:54:24;;;;;;;5.05;3.70;;;;;;;;;;5016583;28;20377;-81
2023/09/22 21:56:50;;;;;;;3.65;3.30;;;;;;;;;;5016264;28;20026;-81
2023/09/22 21:59:16;;;;;;;3.60;3.30;;;;;;;;;;5016317;28;20029;-80
2023/09/22 22:01:41;;;;;;;5.53;3.17;;;;;;;;;;5015822;28;20030;-81
2023/09/22 22:04:07;;;;;;;5.40;2.88;;;;;;;;;;5016437;28;20104;-81
2023/09/22 22:06:42;;;;;;;3.72;2.88;;;;;;;;;;5015900;28;20046;-81
2023/09/22 22:09:10;;;;;;;3.05;2.78;;;;;;;;;;5015801;28;20084;-80
2023/09/22 22:11:40;;;;;;;5.53;2.90;;;;;;;;;;5015899;28;20434;-81
2023/09/22 22:14:13;;;;;;;4.63;2.80;;;;;;;;;;5015802;28;20030;-81
2023/09/22 22:16:39;;;;;;;3.10;2.80;;;;;;;;;;5015615;28;20037;-83
2023/09/22 22:19:06;;;;;;;4.25;2.47;;;;;;;;;;5015772;28;20022;-81
2023/09/22 22:21:33;;;;;;;3.00;2.70;;;;;;;;;;5015721;28;20117;-81
2023/09/22 22:23:59;;;;;;;5.70;2.58;;;;;;;;;;5015894;28;20022;-81
2023/09/22 22:26:29;;;;;;;3.15;2.85;;;;;;;;;;5015320;28;20100;-81
2023/09/22 22:28:57;;;;;;;4.47;2.58;;;;;;;;;;5015338;28;20025;-81
2023/09/22 22:31:23;;;;;;;4.80;2.97;;;;;;;;;;5015546;28;20030;-81
2023/09/22 22:33:49;;;;;;;3.15;2.42;;;;;;;;;;5015601;28;20034;-86
2023/09/22 22:36:15;;;;;;;5.75;2.75;;;;;;;;;;5015686;28;20033;-80
2023/09/22 22:38:41;;;;;;;6.30;3.15;;;;;;;;;;5015643;28;20087;-81
